Time;durP1;ratioP1;P1;durP2;ratioP2;P2;SDS_P1;SDS_P2;PMS_P1;PMS_P2;Temp;Humidity;BMP_temperature;BMP_pressure;BME280_temperature;BME280_humidity;BME280_pressure;Samples;Min_cycle;Max_cycle;Signal;HPM_P1;HPM_P2
2021/12/05 00:20:45;;;;;;;3.75;0.98;;;4.00;99.90;;;;;;10069480;28;20064;-89
2021/12/05 00:25:51;;;;;;;3.95;0.90;;;4.00;99.90;;;;;;10062517;28;20057;-89
2021/12/05 00:41:47;;;;;;;3.22;0.82;;;4.00;99.90;;;;;;10066601;28;20061;-89
2021/12/05 01:08:19;;;;;;;4.60;0.70;;;3.80;99.90;;;;;;10066068;28;20069;-90
2021/12/05 01:18:27;;;;;;;5.65;0.63;;;3.70;99.90;;;;;;10073915;28;20140;-89
2021/12/05 01:23:52;;;;;;;3.05;0.50;;;3.70;99.90;;;;;;10067978;28;20501;-88
2021/12/05 01:29:16;;;;;;;5.22;0.47;;;3.60;99.90;;;;;;10076288;28;20052;-89
2021/12/05 01:34:33;;;;;;;1.95;0.50;;;3.60;99.90;;;;;;10075892;28;20053;-88
2021/12/05 01:40:00;;;;;;;2.37;1.43;;;3.70;99.90;;;;;;10063804;28;20053;-88
2021/12/05 01:45:32;;;;;;;3.65;0.55;;;3.60;99.90;;;;;;10074740;28;20116;-87
2021/12/05 01:51:17;;;;;;;8.27;0.77;;;3.60;99.90;;;;;;10079382;28;20073;-87
2021/12/05 02:01:59;;;;;;;3.85;0.40;;;3.60;99.90;;;;;;10070194;28;20505;-88
2021/12/05 02:15:09;;;;;;;6.00;0.80;;;3.60;99.90;;;;;;10085770;28;20053;-88
2021/12/05 02:39:41;;;;;;;2.78;0.43;;;3.60;99.90;;;;;;10066967;28;20049;-88
2021/12/05 02:44:45;;;;;;;3.22;1.00;;;3.50;99.90;;;;;;10060244;28;20075;-88
2021/12/05 02:49:51;;;;;;;10.30;1.52;;;3.50;99.90;;;;;;10072668;28;20053;-88
2021/12/05 02:54:58;;;;;;;6.68;0.70;;;3.40;99.90;;;;;;10069715;28;20064;-88
2021/12/05 03:00:08;;;;;;;4.72;0.50;;;3.40;99.90;;;;;;10069745;28;20058;-88
2021/12/05 03:05:14;;;;;;;4.43;0.40;;;3.30;99.90;;;;;;10060871;28;20053;-88
2021/12/05 03:10:19;;;;;;;1.85;0.40;;;3.30;99.90;;;;;;10045876;28;20061;-88
2021/12/05 03:15:21;;;;;;;4.47;0.40;;;3.20;99.90;;;;;;10051749;28;20045;-87
2021/12/05 03:20:23;;;;;;;4.07;0.75;;;3.20;99.90;;;;;;10060645;28;20052;-87
2021/12/05 03:25:25;;;;;;;1.88;0.50;;;3.10;99.90;;;;;;10045128;28;20057;-87
2021/12/05 03:30:27;;;;;;;8.15;0.70;;;3.00;99.90;;;;;;10071698;28;20128;-88
2021/12/05 03:35:30;;;;;;;4.50;0.60;;;3.00;99.90;;;;;;10064284;28;20057;-88
2021/12/05 03:40:34;;;;;;;1.48;0.40;;;3.00;99.90;;;;;;10058999;28;20049;-87
2021/12/05 03:45:40;;;;;;;3.75;0.50;;;2.90;99.90;;;;;;10073914;28;20060;-88
2021/12/05 03:50:44;;;;;;;1.07;0.50;;;2.80;99.90;;;;;;10071344;29;20136;-89
2021/12/05 03:55:50;;;;;;;2.55;0.40;;;2.80;99.90;;;;;;10066563;28;20147;-89
2021/12/05 04:00:55;;;;;;;2.92;0.50;;;2.80;99.90;;;;;;10068073;28;20057;-88
2021/12/05 04:05:59;;;;;;;6.07;1.08;;;2.80;99.90;;;;;;10038886;28;20064;-89
2021/12/05 04:11:09;;;;;;;2.40;0.50;;;2.80;99.90;;;;;;10066499;28;20048;-89
2021/12/05 04:16:15;;;;;;;2.22;0.70;;;2.80;99.90;;;;;;10062975;28;20559;-88
2021/12/05 04:21:18;;;;;;;3.85;0.55;;;2.80;99.90;;;;;;10061195;28;20057;-88
2021/12/05 04:26:20;;;;;;;1.05;0.30;;;2.80;99.90;;;;;;10045759;28;20057;-88
2021/12/05 04:31:22;;;;;;;3.47;0.45;;;2.80;99.90;;;;;;10062148;28;20060;-88
2021/12/05 04:36:24;;;;;;;5.00;1.08;;;2.70;99.90;;;;;;10068724;28;20057;-88
2021/12/05 04:41:26;;;;;;;3.80;0.68;;;2.80;99.90;;;;;;10056166;28;20424;-87
2021/12/05 04:46:29;;;;;;;5.45;0.63;;;2.80;99.90;;;;;;10064057;28;20057;-88
2021/12/05 04:51:36;;;;;;;5.38;0.50;;;2.80;99.90;;;;;;10080719;28;20068;-88
2021/12/05 04:56:39;;;;;;;7.10;0.73;;;2.80;99.90;;;;;;10085896;28;20048;-88
2021/12/05 05:01:46;;;;;;;2.40;0.50;;;2.70;99.90;;;;;;10072972;28;20053;-88
2021/12/05 05:06:49;;;;;;;5.90;1.33;;;2.70;99.90;;;;;;10048740;28;20076;-87
2021/12/05 05:11:51;;;;;;;3.97;0.70;;;2.60;99.90;;;;;;10064533;28;20520;-88
2021/12/05 05:16:55;;;;;;;6.32;0.60;;;2.60;99.90;;;;;;10046252;28;20061;-88
2021/12/05 05:43:13;;;;;;;8.20;1.10;;;2.70;99.90;;;;;;10067217;28;20061;-89
2021/12/05 05:48:31;;;;;;;7.10;1.05;;;2.70;99.90;;;;;;10068342;28;20060;-89
2021/12/05 05:53:34;;;;;;;6.57;0.70;;;2.70;99.90;;;;;;10056074;29;20049;-88
2021/12/05 05:58:42;;;;;;;8.27;1.15;;;2.80;99.90;;;;;;10056588;28;20056;-88
2021/12/05 06:03:43;;;;;;;4.03;0.70;;;2.80;99.90;;;;;;10072975;28;20062;-88
2021/12/05 06:08:45;;;;;;;5.22;0.95;;;2.80;99.90;;;;;;10055226;28;20105;-88
2021/12/05 06:13:47;;;;;;;3.28;0.68;;;2.80;99.90;;;;;;10071967;28;20057;-88
2021/12/05 06:18:49;;;;;;;3.20;0.57;;;2.90;99.90;;;;;;10071213;28;20115;-87
2021/12/05 06:23:51;;;;;;;5.13;1.00;;;2.90;99.90;;;;;;10074224;28;20139;-89
2021/12/05 06:29:07;;;;;;;1.58;0.60;;;2.90;99.90;;;;;;10060854;28;20057;-87
2021/12/05 06:39:43;;;;;;;3.42;0.52;;;3.00;99.90;;;;;;10054850;29;20045;-87
2021/12/05 06:50:06;;;;;;;8.07;0.68;;;3.10;99.90;;;;;;10056305;28;20068;-87
2021/12/05 06:55:16;;;;;;;3.55;0.80;;;3.20;99.90;;;;;;10052139;28;20045;-87
2021/12/05 07:00:22;;;;;;;4.95;0.73;;;3.20;99.90;;;;;;10059086;28;20064;-87
2021/12/05 07:05:40;;;;;;;4.93;0.75;;;3.20;99.90;;;;;;10071433;28;20056;-88
2021/12/05 07:11:22;;;;;;;8.82;0.88;;;3.20;99.90;;;;;;10068737;28;20455;-87
2021/12/05 07:16:54;;;;;;;3.33;0.50;;;3.30;99.90;;;;;;10060880;28;20101;-87
2021/12/05 07:21:54;;;;;;;6.47;0.80;;;3.20;99.90;;;;;;10060804;28;20053;-88
2021/12/05 07:43:20;;;;;;;5.32;0.65;;;3.40;99.90;;;;;;10074785;28;20072;-90
2021/12/05 07:48:33;;;;;;;2.13;0.98;;;3.40;99.90;;;;;;10071324;28;20056;-90
2021/12/05 07:53:55;;;;;;;3.45;1.00;;;3.50;99.90;;;;;;10031390;28;20053;-90
2021/12/05 07:59:19;;;;;;;4.72;1.10;;;3.40;99.90;;;;;;10067439;28;20140;-91
2021/12/05 08:20:13;;;;;;;5.32;0.70;;;3.70;99.90;;;;;;10070660;28;20060;-90
2021/12/05 08:25:25;;;;;;;4.10;0.70;;;3.80;99.90;;;;;;10064878;28;20061;-91
2021/12/05 08:30:34;;;;;;;4.75;0.82;;;3.90;99.90;;;;;;10091186;28;20121;-91
2021/12/05 08:36:11;;;;;;;6.75;1.05;;;3.90;99.90;;;;;;10060688;28;20416;-91
2021/12/05 08:41:40;;;;;;;4.53;0.95;;;3.90;99.90;;;;;;10075661;28;20108;-91
2021/12/05 09:24:37;;;;;;;1.30;0.50;;;4.20;99.90;;;;;;10077473;28;20051;-91
2021/12/05 10:38:48;;;;;;;4.93;1.15;;;5.30;99.90;;;;;;10070384;28;20060;-91
2021/12/05 10:43:54;;;;;;;6.50;0.80;;;5.40;99.90;;;;;;10077626;28;20049;-91
2021/12/05 10:49:11;;;;;;;2.85;0.63;;;5.40;99.90;;;;;;10074522;28;20057;-93
2021/12/05 10:54:17;;;;;;;1.73;0.70;;;5.40;99.90;;;;;;10055078;28;20060;-93
2021/12/05 10:59:25;;;;;;;2.28;0.75;;;5.50;99.90;;;;;;10065641;28;20057;-93
2021/12/05 11:04:34;;;;;;;5.53;0.65;;;5.50;99.90;;;;;;10067837;29;20117;-93
2021/12/05 11:09:43;;;;;;;3.97;0.80;;;5.40;99.90;;;;;;10081513;28;20061;-93
2021/12/05 11:14:52;;;;;;;1.48;0.60;;;5.50;99.90;;;;;;10084419;28;20057;-92
2021/12/05 11:19:58;;;;;;;3.25;0.90;;;5.50;99.90;;;;;;10072175;28;20044;-91
2021/12/05 11:25:27;;;;;;;3.50;0.57;;;5.40;99.90;;;;;;10056015;28;20501;-92
2021/12/05 11:30:33;;;;;;;2.28;0.60;;;5.40;99.90;;;;;;10071707;28;20057;-93
2021/12/05 11:35:42;;;;;;;2.13;0.60;;;5.40;99.90;;;;;;10056138;28;20771;-93
2021/12/05 11:41:07;;;;;;;0.90;0.30;;;5.50;99.90;;;;;;10074950;28;20468;-93
2021/12/05 11:46:25;;;;;;;0.40;0.20;;;5.60;99.90;;;;;;10052538;28;20057;-91
2021/12/05 11:51:32;;;;;;;2.10;0.30;;;5.60;99.90;;;;;;10058225;28;20167;-92
2021/12/05 11:56:34;;;;;;;1.08;0.30;;;5.70;99.90;;;;;;10057143;28;20124;-91
2021/12/05 12:02:17;;;;;;;2.80;0.40;;;5.80;99.90;;;;;;10056763;29;20455;-92
2021/12/05 12:07:53;;;;;;;1.75;0.20;;;5.80;99.90;;;;;;10056096;28;20061;-93
2021/12/05 12:13:12;;;;;;;3.13;0.32;;;5.90;99.90;;;;;;10060591;28;20060;-94
2021/12/05 12:18:29;;;;;;;1.17;0.30;;;5.90;99.90;;;;;;9877857;28;20037;-94
2021/12/05 12:23:57;;;;;;;2.75;0.30;;;6.10;99.90;;;;;;10071949;28;20052;-94
2021/12/05 12:29:28;;;;;;;0.80;0.40;;;6.20;99.90;;;;;;10351106;27;20149;-60
2021/12/05 12:34:30;;;;;;;2.38;0.65;;;6.10;99.90;;;;;;10348074;28;20485;-62
2021/12/05 12:39:38;;;;;;;1.17;0.40;;;6.10;99.90;;;;;;10351041;28;20108;-60
2021/12/05 12:45:12;;;;;;;1.65;0.50;;;6.10;99.90;;;;;;10349096;28;20050;-60
2021/12/05 12:50:34;;;;;;;2.33;0.38;;;6.30;99.90;;;;;;10354159;28;20097;-60
2021/12/05 12:55:41;;;;;;;1.40;0.30;;;6.30;99.90;;;;;;10363121;28;20037;-60
2021/12/05 13:00:46;;;;;;;2.28;0.30;;;6.50;99.90;;;;;;10354986;28;20049;-60
2021/12/05 13:10:52;;;;;;;1.63;0.30;;;6.70;99.90;;;;;;10352358;28;20447;-62
2021/12/05 13:16:18;;;;;;;2.83;0.30;;;6.80;99.90;;;;;;10360703;28;20135;-62
2021/12/05 13:21:31;;;;;;;0.70;0.30;;;6.70;99.90;;;;;;10341522;28;20085;-62
2021/12/05 13:26:42;;;;;;;2.50;0.57;;;6.60;99.90;;;;;;10362402;28;20558;-62
2021/12/05 13:31:49;;;;;;;3.90;0.73;;;6.70;99.90;;;;;;10411267;28;20111;-62
2021/12/05 13:36:59;;;;;;;1.80;0.28;;;6.70;99.90;;;;;;10405018;28;20053;-63
2021/12/05 13:42:00;;;;;;;0.60;0.30;;;6.60;97.90;;;;;;10383627;28;20099;-62
2021/12/05 13:47:15;;;;;;;0.50;0.30;;;6.50;99.20;;;;;;10390444;28;20053;-62
2021/12/05 13:52:45;;;;;;;2.45;0.20;;;6.30;99.30;;;;;;10390473;28;20045;-62
2021/12/05 13:58:24;;;;;;;0.90;0.25;;;6.20;99.90;;;;;;10385399;28;20466;-63
2021/12/05 14:03:47;;;;;;;1.25;0.60;;;6.10;99.90;;;;;;10384077;28;20045;-63
2021/12/05 14:08:49;;;;;;;1.48;0.50;;;6.10;99.90;;;;;;10376529;28;20072;-64
2021/12/05 14:13:52;;;;;;;2.38;0.30;;;6.10;99.90;;;;;;10385174;28;20080;-63
2021/12/05 14:18:54;;;;;;;3.60;0.50;;;6.00;99.90;;;;;;10384559;28;20054;-63
2021/12/05 14:24:00;;;;;;;1.92;0.30;;;6.10;99.90;;;;;;10383711;28;20049;-64
2021/12/05 14:29:14;;;;;;;1.75;0.20;;;6.10;99.90;;;;;;10380875;28;20053;-63
2021/12/05 14:34:18;;;;;;;2.08;0.30;;;6.10;99.90;;;;;;10393312;28;20513;-64
2021/12/05 14:39:25;;;;;;;1.88;0.50;;;6.20;99.90;;;;;;10381139;28;20503;-63
2021/12/05 14:44:28;;;;;;;1.65;0.40;;;6.20;99.90;;;;;;10382115;28;20049;-63
2021/12/05 14:49:33;;;;;;;2.05;0.47;;;6.10;99.90;;;;;;10377094;28;20049;-63
2021/12/05 14:54:37;;;;;;;1.48;0.80;;;6.20;99.90;;;;;;10379520;28;20045;-63
2021/12/05 14:59:41;;;;;;;1.20;0.52;;;6.20;99.90;;;;;;10383578;28;20496;-64
2021/12/05 15:04:46;;;;;;;3.55;0.60;;;6.10;99.90;;;;;;10384415;28;20053;-65
2021/12/05 15:09:54;;;;;;;2.72;0.68;;;6.10;99.90;;;;;;10385882;28;20122;-63
2021/12/05 15:14:58;;;;;;;1.48;0.50;;;6.10;99.90;;;;;;10387659;28;20096;-63
2021/12/05 15:20:07;;;;;;;1.88;0.40;;;6.10;99.90;;;;;;10379271;28;20100;-62
2021/12/05 15:25:19;;;;;;;2.50;0.60;;;6.10;99.90;;;;;;10382216;28;20384;-64
2021/12/05 15:30:23;;;;;;;1.85;0.60;;;6.10;99.90;;;;;;10382765;28;20542;-64
2021/12/05 15:35:26;;;;;;;2.72;0.80;;;6.00;99.90;;;;;;10385562;28;20049;-64
2021/12/05 15:40:29;;;;;;;1.20;0.90;;;6.00;99.90;;;;;;10384570;28;20045;-64
2021/12/05 15:45:32;;;;;;;5.40;1.08;;;6.00;99.90;;;;;;10385555;28;20077;-65
2021/12/05 15:50:37;;;;;;;1.40;0.40;;;5.70;99.90;;;;;;10384079;28;20853;-65
2021/12/05 15:55:43;;;;;;;0.65;0.28;;;5.30;99.90;;;;;;10384981;28;20053;-64
2021/12/05 16:00:52;;;;;;;0.68;0.30;;;5.10;99.90;;;;;;10383382;28;20064;-64
2021/12/05 16:05:59;;;;;;;1.48;0.40;;;4.80;99.90;;;;;;10381997;28;20049;-62
2021/12/05 16:11:09;;;;;;;1.60;0.30;;;4.60;99.90;;;;;;10384593;28;20062;-63
2021/12/05 16:16:25;;;;;;;0.60;0.30;;;4.40;99.90;;;;;;10381572;28;20068;-62
2021/12/05 16:21:29;;;;;;;0.30;0.20;;;4.20;99.90;;;;;;10385769;28;20087;-62
2021/12/05 16:26:31;;;;;;;3.10;0.20;;;4.00;99.90;;;;;;10382425;28;20508;-62
2021/12/05 16:31:45;;;;;;;0.60;0.15;;;3.90;99.90;;;;;;10381873;28;20053;-62
2021/12/05 16:36:56;;;;;;;1.27;0.30;;;3.90;99.90;;;;;;10381910;28;20053;-62
2021/12/05 16:42:03;;;;;;;2.78;0.45;;;3.80;99.90;;;;;;10384051;28;20049;-62
2021/12/05 16:47:14;;;;;;;0.53;0.30;;;3.80;99.90;;;;;;10384023;28;20050;-62
2021/12/05 16:52:20;;;;;;;2.22;0.30;;;3.80;99.90;;;;;;10384184;28;20053;-62
2021/12/05 16:57:39;;;;;;;1.88;0.43;;;3.80;99.90;;;;;;10382497;28;20088;-62
2021/12/05 17:02:44;;;;;;;1.70;0.57;;;3.80;99.90;;;;;;10381820;28;20057;-62
2021/12/05 17:08:13;;;;;;;0.40;0.30;;;3.80;99.90;;;;;;10382443;28;20224;-63
2021/12/05 17:13:26;;;;;;;1.98;0.40;;;3.80;99.90;;;;;;10385013;28;20416;-63
2021/12/05 17:18:42;;;;;;;4.07;1.25;;;3.80;99.90;;;;;;10391726;28;20045;-63
2021/12/05 17:23:57;;;;;;;8.90;1.10;;;3.90;99.90;;;;;;10390208;28;20056;-63
2021/12/05 17:29:07;;;;;;;0.45;0.10;;;3.90;99.90;;;;;;10389651;28;20095;-64
2021/12/05 17:34:12;;;;;;;2.35;0.60;;;3.90;99.90;;;;;;10387965;28;20045;-64
2021/12/05 17:39:20;;;;;;;3.53;0.70;;;3.80;99.90;;;;;;10390556;28;20061;-64
2021/12/05 17:44:23;;;;;;;6.55;1.05;;;3.80;99.90;;;;;;10388936;28;20377;-64
2021/12/05 17:49:27;;;;;;;12.10;1.77;;;3.80;99.90;;;;;;10389916;28;20804;-63
2021/12/05 17:54:51;;;;;;;5.80;1.90;;;3.80;99.90;;;;;;10390762;28;20053;-62
2021/12/05 18:00:11;;;;;;;9.00;1.58;;;3.80;99.90;;;;;;10387724;28;20507;-62
2021/12/05 18:05:23;;;;;;;4.80;1.63;;;3.70;99.90;;;;;;10385663;28;20057;-63
2021/12/05 18:16:41;;;;;;;5.53;1.58;;;3.70;99.90;;;;;;10386343;28;20053;-62
2021/12/05 18:21:44;;;;;;;5.90;1.73;;;3.70;99.90;;;;;;10389904;28;20053;-63
2021/12/05 18:26:47;;;;;;;6.85;2.67;;;3.60;99.90;;;;;;10382220;28;20099;-63
2021/12/05 18:31:50;;;;;;;6.75;2.80;;;3.60;99.90;;;;;;10380531;28;20119;-64
2021/12/05 18:36:54;;;;;;;8.77;2.97;;;3.60;99.90;;;;;;10379520;28;20368;-64
2021/12/05 18:42:03;;;;;;;4.82;2.03;;;3.50;99.90;;;;;;10388214;28;20049;-65
2021/12/05 18:47:05;;;;;;;9.02;3.33;;;3.50;99.90;;;;;;10386006;28;20501;-65
2021/12/05 18:52:08;;;;;;;6.63;4.15;;;3.50;99.90;;;;;;10383058;28;20041;-64
2021/12/05 18:57:16;;;;;;;15.18;6.97;;;3.60;99.90;;;;;;10384212;28;20069;-63
2021/12/05 19:07:48;;;;;;;4.75;2.50;;;3.60;99.90;;;;;;10379426;28;20418;-65
2021/12/05 19:12:50;;;;;;;5.63;2.47;;;3.60;99.90;;;;;;10380616;28;20064;-64
2021/12/05 19:17:52;;;;;;;6.90;2.10;;;3.60;99.90;;;;;;10380345;28;20053;-64
2021/12/05 19:22:55;;;;;;;7.30;3.33;;;3.60;99.90;;;;;;10379630;28;20612;-64
2021/12/05 19:27:58;;;;;;;14.27;4.65;;;3.60;99.90;;;;;;10382370;28;20041;-65
2021/12/05 19:33:02;;;;;;;13.90;4.97;;;3.60;99.90;;;;;;10377088;28;20107;-65
2021/12/05 19:38:05;;;;;;;16.40;4.47;;;3.60;99.90;;;;;;10379698;28;20053;-64
2021/12/05 19:43:09;;;;;;;6.95;2.90;;;3.60;99.90;;;;;;10380588;28;20049;-64
2021/12/05 19:48:11;;;;;;;5.00;2.38;;;3.60;99.90;;;;;;10381864;28;20077;-64
2021/12/05 19:53:12;;;;;;;6.88;3.05;;;3.60;99.90;;;;;;10383654;28;20131;-63
2021/12/05 19:58:14;;;;;;;7.65;3.17;;;3.70;99.90;;;;;;10382181;28;20045;-64
2021/12/05 20:03:16;;;;;;;9.07;3.63;;;3.60;99.90;;;;;;10375227;28;20503;-65
2021/12/05 20:08:19;;;;;;;12.65;6.07;;;3.60;99.90;;;;;;10369792;28;20049;-65
2021/12/05 20:13:21;;;;;;;11.52;4.72;;;3.50;99.90;;;;;;10374393;28;21908;-64
2021/12/05 20:18:23;;;;;;;7.25;4.55;;;3.50;99.90;;;;;;10377829;28;20056;-65
2021/12/05 20:23:25;;;;;;;10.98;6.25;;;3.50;99.90;;;;;;10381902;28;20041;-65
2021/12/05 20:28:28;;;;;;;18.77;7.88;;;3.50;99.90;;;;;;10382096;28;20083;-66
2021/12/05 20:33:30;;;;;;;15.40;6.20;;;3.50;99.90;;;;;;10383111;28;20049;-64
2021/12/05 20:38:34;;;;;;;16.02;4.97;;;3.50;99.90;;;;;;10380662;28;20072;-65
2021/12/05 20:43:41;;;;;;;8.68;3.53;;;3.50;99.90;;;;;;10384424;28;20119;-64
2021/12/05 20:48:43;;;;;;;7.53;4.20;;;3.50;99.90;;;;;;10388579;28;20111;-65
2021/12/05 20:53:45;;;;;;;10.75;5.03;;;3.50;99.90;;;;;;10393047;28;20081;-65
2021/12/05 20:58:46;;;;;;;9.23;4.35;;;3.50;99.90;;;;;;10390395;28;20381;-65
2021/12/05 21:03:48;;;;;;;10.30;4.47;;;3.50;99.90;;;;;;10392176;28;20050;-65
2021/12/05 21:08:50;;;;;;;12.75;4.95;;;3.50;99.90;;;;;;10392481;28;20515;-64
2021/12/05 21:13:52;;;;;;;8.73;4.10;;;3.50;99.90;;;;;;10390616;28;21226;-65
2021/12/05 21:18:55;;;;;;;6.60;2.83;;;3.50;99.90;;;;;;10387419;28;20081;-65
2021/12/05 21:23:57;;;;;;;7.38;3.50;;;3.60;99.90;;;;;;10390222;28;20046;-65
2021/12/05 21:28:59;;;;;;;7.53;3.08;;;3.60;99.90;;;;;;10392176;28;20472;-64
2021/12/05 21:34:00;;;;;;;10.20;3.30;;;3.50;99.90;;;;;;10391525;28;20132;-64
2021/12/05 21:39:03;;;;;;;7.88;3.70;;;3.50;99.90;;;;;;10390793;28;20050;-65
2021/12/05 21:44:05;;;;;;;6.18;3.08;;;3.50;99.90;;;;;;10387229;28;20230;-65
2021/12/05 21:49:06;;;;;;;8.75;4.70;;;3.50;99.90;;;;;;10367754;28;20053;-65
2021/12/05 21:54:09;;;;;;;6.88;3.95;;;3.50;99.90;;;;;;10388453;28;20476;-65
2021/12/05 21:59:11;;;;;;;8.88;3.10;;;3.50;99.90;;;;;;10387316;28;20055;-65
2021/12/05 22:04:12;;;;;;;8.43;3.53;;;3.50;99.90;;;;;;10389774;28;20061;-65
2021/12/05 22:09:14;;;;;;;7.45;3.38;;;3.50;99.90;;;;;;10386846;28;20050;-64
2021/12/05 22:14:17;;;;;;;6.63;2.90;;;3.50;99.90;;;;;;10389965;28;20042;-65
2021/12/05 22:19:19;;;;;;;5.85;3.28;;;3.50;99.90;;;;;;10391575;28;20045;-65
2021/12/05 22:24:21;;;;;;;9.05;4.07;;;3.50;99.90;;;;;;10383520;28;20049;-65
2021/12/05 22:29:22;;;;;;;8.50;3.70;;;3.50;99.90;;;;;;10382655;28;20054;-63
2021/12/05 22:34:24;;;;;;;10.07;3.78;;;3.40;99.90;;;;;;10388156;28;20046;-64
2021/12/05 22:39:26;;;;;;;7.45;3.65;;;3.40;99.90;;;;;;10386501;28;20099;-64
2021/12/05 22:44:27;;;;;;;8.98;3.60;;;3.40;99.90;;;;;;10389129;28;20239;-64
2021/12/05 22:49:29;;;;;;;7.82;3.15;;;3.30;99.90;;;;;;10386418;28;20052;-64
2021/12/05 22:54:32;;;;;;;5.53;3.13;;;3.20;99.90;;;;;;10387586;28;20077;-64
2021/12/05 22:59:34;;;;;;;6.20;3.17;;;3.10;99.90;;;;;;10388811;28;20069;-64
2021/12/05 23:04:36;;;;;;;8.95;3.88;;;3.00;99.90;;;;;;10173189;28;20108;-64
2021/12/05 23:09:38;;;;;;;10.20;3.55;;;2.90;99.90;;;;;;10387373;28;20139;-65
2021/12/05 23:14:39;;;;;;;7.70;3.15;;;2.80;99.90;;;;;;10389098;28;20073;-65
2021/12/05 23:19:41;;;;;;;9.05;4.22;;;2.60;99.90;;;;;;10386649;28;20140;-65
2021/12/05 23:24:43;;;;;;;9.32;3.97;;;2.50;99.90;;;;;;10386312;28;20077;-65
2021/12/05 23:29:45;;;;;;;12.68;4.07;;;2.40;99.90;;;;;;10385441;28;20396;-65
2021/12/05 23:34:47;;;;;;;11.45;4.00;;;2.30;99.90;;;;;;10386725;28;20053;-64
2021/12/05 23:39:49;;;;;;;11.18;4.35;;;2.10;99.90;;;;;;10384887;28;20053;-64
2021/12/05 23:44:52;;;;;;;6.97;3.67;;;2.00;99.90;;;;;;10386736;28;20085;-65
2021/12/05 23:49:54;;;;;;;10.45;4.03;;;1.90;99.90;;;;;;10380706;28;20056;-65
2021/12/05 23:54:59;;;;;;;7.40;3.17;;;1.80;99.90;;;;;;10383155;28;20467;-65
